Date,TemperatureHighF,TemperatureAvgF,TemperatureLowF,DewpointHighF,DewpointAvgF,DewpointLowF,HumidityHigh,HumidityAvg,HumidityLow,PressureMaxIn,PressureMinIn,WindSpeedMaxMPH,WindSpeedAvgMPH,GustSpeedMaxMPH,PrecipitationSumIn
2012-1-1,34.2,32.0,27.5,33.1,28.1,0.0,100,86,59,29.00,28.64,42,10,42,11.41
2012-1-2,27.5,21.1,12.2,21.2,9.9,-1.3,91,62,46,29.41,28.88,49,17,49,11.41
2012-1-3,25.7,15.2,5.5,12.0,2.1,-4.6,68,56,40,29.50,29.14,35,8,35,11.41
2012-1-4,33.6,28.4,21.0,25.8,19.6,12.1,78,69,58,29.14,29.00,24,8,24,11.41
2012-1-5,39.9,32.4,24.8,33.0,24.3,0.0,95,73,16,29.12,28.67,26,5,26,0.12
2012-1-6,48.7,39.4,26.2,33.9,30.5,23.7,95,71,49,28.88,28.64,27,8,27,0.08
2012-1-7,35.4,28.3,24.4,34.7,21.9,14.8,98,77,61,29.38,28.85,33,9,33,0.00
2012-1-8,35.4,27.1,17.1,26.6,19.4,14.1,92,73,58,29.44,29.35,26,5,26,0.00
2012-1-9,41.5,33.4,16.9,34.3,28.4,13.9,98,82,65,29.38,28.91,37,9,37,0.00
2012-1-10,46.2,36.5,29.5,30.2,25.6,21.7,89,66,43,29.17,28.97,16,4,16,0.00
2012-1-11,49.3,37.1,28.9,33.0,28.9,24.3,97,74,48,28.97,28.76,11,4,11,0.00
2012-1-12,35.8,32.0,25.9,35.3,30.8,23.1,98,95,86,28.76,28.58,20,5,20,0.00
2012-1-13,25.9,14.5,-6.3,23.2,5.7,-16.6,91,68,49,29.17,28.61,26,10,26,0.00
2012-1-14,26.4,4.1,-14.6,7.9,-9.1,-24.6,74,54,42,29.44,29.17,18,4,18,0.00
2012-1-15,31.6,16.6,-4.4,17.0,5.0,-17.5,81,60,48,29.50,29.29,24,7,24,0.00
2012-1-16,34.9,27.0,15.1,28.0,19.8,0.0,100,75,64,29.32,28.94,20,5,20,0.00
2012-1-17,29.1,23.7,15.8,27.1,17.1,3.3,92,76,55,29.20,28.85,44,13,44,0.00
2012-1-18,25.3,18.0,9.3,12.1,6.9,-1.4,71,61,49,29.35,28.94,34,7,34,0.00
2012-1-19,21.9,14.2,8.1,21.2,6.0,-1.2,97,69,58,29.23,28.70,45,14,45,0.00
2012-1-20,18.7,11.8,-0.9,7.8,1.9,-10.5,69,64,54,29.38,29.23,23,5,23,0.00
2012-1-21,80.2,10.6,-12.5,80.2,-2.4,-21.5,100,57,35,29.47,29.29,16,4,16,0.00
2012-1-22,37.4,25.0,11.8,29.0,14.4,0.0,100,65,47,29.41,28.94,28,9,28,0.00
2012-1-23,49.6,35.6,29.5,45.3,34.6,29.0,98,96,79,28.94,28.47,21,9,21,0.00
2012-1-24,32.2,24.9,22.8,31.7,16.5,9.4,98,71,47,29.50,28.79,29,11,29,0.00
2012-1-25,41.2,27.7,19.6,24.5,20.5,17.1,97,76,49,29.56,29.29,9,4,9,0.00
2012-1-26,39.9,29.7,19.8,32.8,24.9,0.0,100,83,60,29.35,28.82,13,5,13,0.00
2012-1-27,43.5,33.9,30.7,32.6,27.7,18.8,98,81,41,28.97,28.76,5,5,5,0.00
2012-1-28,25.9,25.8,25.5,12.0,10.9,10.1,56,53,51,29.03,29.03,30,11,30,0.00
2012-1-29,27.7,23.6,19.9,12.0,8.3,2.8,60,52,46,29.32,29.00,30,11,30,0.00
2012-1-30,25.7,17.6,0.7,20.5,8.7,-10.3,85,68,51,29.35,29.03,20,6,20,0.00
2012-1-31,44.6,33.9,23.0,38.4,26.9,19.6,88,76,54,29.06,28.82,25,6,25,0.04
2012-2-1,37.4,33.2,30.0,32.4,27.0,21.6,96,78,59,29.35,28.88,26,8,26,0.00
2012-2-2,37.0,32.2,29.1,32.6,25.7,22.1,98,77,59,29.59,29.35,13,3,13,0.00
2012-2-3,47.7,33.8,21.9,29.2,26.0,18.7,95,74,45,29.68,29.59,16,4,16,0.04
2012-2-4,47.7,29.0,14.2,32.7,21.8,11.0,96,77,43,29.62,29.38,18,4,18,0.00
2012-2-5,36.9,32.4,30.0,30.4,24.8,20.4,89,74,53,29.47,29.23,24,7,24,0.04
2012-2-6,44.4,36.0,31.6,30.7,26.2,19.9,89,68,47,29.35,29.12,28,9,28,0.04
2012-2-7,31.8,21.5,5.5,20.1,6.1,-7.9,68,52,31,29.65,29.32,24,8,24,0.00
2012-2-8,38.8,24.7,5.2,17.0,9.2,-8.2,89,52,40,29.56,29.23,19,6,19,0.04
2012-2-9,42.8,31.3,22.3,19.1,14.0,8.3,61,49,38,29.29,29.06,35,9,35,0.04
2012-2-10,32.0,16.4,5.9,18.3,3.1,-10.4,79,56,45,29.35,29.06,29,11,29,0.04
2012-2-11,25.9,13.5,0.7,14.2,-1.0,-15.2,75,52,45,29.44,29.23,34,9,34,0.00
2012-2-12,37.8,26.6,21.0,16.5,12.2,7.8,80,55,40,29.29,29.14,35,11,35,0.00
2012-2-13,40.3,30.1,20.1,26.4,12.5,4.8,80,48,34,29.17,29.03,29,8,29,0.04
2012-2-14,37.4,31.1,28.8,29.3,27.5,25.0,96,87,64,29.12,28.97,16,3,16,0.04
2012-2-15,36.9,33.1,29.3,32.2,29.4,26.7,95,86,70,29.29,29.12,22,4,22,0.05
2012-2-16,43.3,33.9,27.3,36.2,30.2,24.5,98,87,64,29.23,29.06,14,4,14,0.17
2012-2-17,44.1,32.9,26.1,27.5,21.9,16.8,90,65,39,29.23,29.12,30,7,30,0.21
2012-2-18,33.1,23.6,5.5,23.1,14.5,-0.1,94,69,46,29.44,29.20,24,8,24,0.04
2012-2-19,50.5,20.8,2.8,25.9,10.3,-2.7,91,68,34,29.44,29.32,15,4,15,0.21
2012-2-20,57.6,28.4,9.0,31.8,16.6,6.6,91,67,27,29.47,29.23,18,4,18,0.21
2012-2-21,45.5,33.6,26.6,33.7,21.5,0.0,100,63,32,29.23,28.64,26,8,26,0.04
2012-2-22,39.7,34.0,30.7,30.6,24.2,19.2,80,67,50,28.64,28.52,29,9,29,0.04
2012-2-23,43.7,31.9,26.1,25.8,23.3,20.4,89,72,48,28.91,28.58,17,4,17,0.25
2012-2-24,35.1,29.4,26.8,27.7,22.8,18.2,97,77,52,28.91,28.70,24,8,24,0.04
2012-2-25,36.7,25.4,11.5,23.3,11.2,1.8,87,56,33,29.47,28.88,30,10,30,0.25
2012-2-26,38.7,23.1,6.8,19.3,9.9,-2.5,83,57,42,29.53,29.09,37,9,37,0.00
2012-2-27,37.0,31.0,24.4,26.8,20.2,13.0,80,64,52,29.62,29.00,46,13,46,0.00
2012-2-28,45.0,28.9,17.1,26.1,19.7,0.0,100,71,44,29.68,29.38,16,5,16,0.25
2012-2-29,35.6,31.5,28.9,31.2,27.0,0.0,100,85,64,29.38,28.70,51,19,51,0.00
2012-3-1,48.2,32.1,26.6,32.2,25.0,20.7,98,76,43,29.06,28.73,19,5,19,0.00
2012-3-2,53.2,34.6,29.7,36.0,29.9,25.4,98,85,42,29.03,28.41,24,5,24,0.21
2012-3-3,31.8,31.8,31.8,31.3,31.3,31.3,98,98,98,28.38,28.38,0,0,0,0.00
2012-3-6,52.7,44.9,38.8,31.9,26.3,19.2,64,49,37,29.26,28.38,33,8,33,0.21
2012-3-7,63.0,54.0,46.4,49.2,35.4,30.5,98,51,34,29.06,28.79,45,16,45,0.00
2012-3-8,46.4,29.5,20.3,45.5,22.9,0.0,100,78,52,29.26,28.82,39,10,39,0.00
2012-3-9,30.6,23.7,10.9,23.3,10.3,0.8,86,57,40,29.71,29.14,44,14,44,0.00
2012-3-10,51.6,31.7,10.0,27.5,13.7,0.0,83,50,30,29.71,29.17,34,7,34,0.00
2012-3-11,63.7,52.5,36.1,31.9,27.0,20.3,64,38,28,29.35,29.09,39,10,39,0.00
2012-3-12,50.4,44.2,35.1,49.1,36.4,23.3,98,76,45,29.32,28.88,35,6,35,0.00
2012-3-13,55.0,45.1,26.8,43.5,33.9,22.6,95,67,38,29.29,28.88,35,10,35,0.00
2012-3-14,78.4,47.8,25.0,39.7,29.8,22.5,97,59,23,29.29,29.06,24,6,24,0.00
2012-3-15,70.7,48.2,34.5,43.2,35.6,30.4,98,66,32,29.29,29.09,13,3,13,0.21
2012-3-16,74.3,49.2,27.3,40.9,32.5,25.3,97,60,25,29.35,29.23,18,5,18,0.00
2012-3-17,82.4,64.1,49.6,54.0,46.2,39.1,95,58,30,29.29,29.20,34,7,34,0.00
2012-3-18,85.5,64.7,50.2,54.7,48.6,42.7,89,59,33,29.29,29.20,16,4,16,0.00
2012-3-19,86.7,63.8,47.5,56.6,50.5,45.2,98,67,32,29.29,29.17,19,5,19,0.00
2012-3-20,87.1,68.4,52.9,56.5,50.7,43.0,89,58,24,29.32,29.20,30,6,30,0.00
2012-3-21,88.0,69.7,51.4,52.8,48.8,43.1,85,51,28,29.35,29.29,37,6,37,0.00
2012-3-22,64.6,54.7,46.6,55.9,50.3,42.3,98,86,67,29.47,29.29,86,8,86,0.00
2012-3-23,53.2,49.8,46.0,50.2,46.3,38.6,97,88,76,29.44,29.20,86,12,86,0.00
2012-3-24,57.0,47.5,41.7,39.9,31.1,0.0,83,54,37,29.23,29.12,33,11,33,0.00
2012-3-25,50.5,41.6,29.1,40.1,28.9,13.7,89,62,43,29.47,29.12,35,9,35,0.00
2012-3-26,50.2,32.9,21.2,16.5,11.3,5.8,59,42,26,29.71,29.47,24,7,24,0.00
2012-3-27,57.7,39.6,21.6,33.0,14.9,0.0,54,36,16,29.59,28.76,34,8,34,0.00
2012-3-28,59.7,42.9,34.9,42.1,33.8,22.5,86,71,39,29.26,28.73,42,10,42,0.00
2012-3-29,49.1,35.9,26.2,23.8,19.9,14.1,76,53,37,29.47,29.23,22,8,22,0.00
2012-3-30,36.3,32.6,25.9,30.9,24.0,17.8,89,71,55,29.38,29.14,34,11,34,0.00
2012-3-31,50.9,37.0,30.7,29.1,26.3,22.8,84,67,41,29.29,29.06,18,5,18,0.00
2012-4-1,55.8,40.5,30.2,39.0,34.2,27.1,98,79,50,29.14,28.94,16,5,16,0.00
2012-4-2,62.6,42.5,26.4,37.4,26.3,0.0,98,60,28,29.32,29.12,26,8,26,0.00
2012-4-3,53.2,43.5,28.8,34.7,27.0,17.9,93,53,42,29.23,29.09,20,6,20,0.00
2012-4-4,56.1,40.8,25.7,34.0,25.6,21.8,98,61,29,29.29,29.14,30,8,30,0.00
2012-4-5,54.1,37.4,21.7,22.8,18.1,11.2,81,48,28,29.44,29.29,19,6,19,0.00
2012-4-6,56.8,37.5,18.1,29.9,19.4,11.8,93,54,26,29.56,29.41,18,4,18,0.00
2012-4-7,66.4,42.7,19.6,27.8,20.9,13.9,92,48,23,29.50,29.29,18,5,18,0.00
2012-4-8,57.0,45.5,34.2,44.2,28.8,15.7,98,56,26,29.29,29.17,23,7,23,0.00
2012-4-9,57.0,40.1,21.7,31.2,22.9,14.3,92,55,26,29.20,29.03,35,7,35,0.00
2012-4-10,43.0,36.9,33.6,29.6,24.5,20.7,82,61,44,29.23,29.06,35,13,35,0.00
2012-4-11,53.4,37.9,20.8,35.3,25.2,18.6,98,65,35,29.47,29.23,27,7,27,0.00
2012-4-12,56.5,36.5,18.9,34.4,24.1,16.3,96,66,35,29.47,29.41,19,5,19,0.00
2012-4-13,62.2,42.9,21.2,36.5,25.0,18.5,95,56,27,29.47,29.26,23,5,23,0.00
2012-4-14,69.1,56.5,34.2,44.8,35.9,0.0,67,47,31,29.26,28.97,28,8,28,0.00
2012-4-15,69.3,57.4,34.2,61.1,51.3,0.0,100,82,51,29.03,28.76,17,4,17,0.00
2012-4-16,68.4,54.2,29.7,62.5,44.6,13.8,93,71,43,29.26,28.61,48,15,48,0.21
2012-4-17,45.5,32.5,23.2,21.1,16.8,12.5,86,53,38,29.62,29.26,34,10,34,0.21
2012-4-18,56.5,41.6,21.4,42.6,30.4,15.9,91,67,38,29.56,29.06,39,7,39,0.21
2012-4-19,51.8,42.8,37.6,40.2,32.0,27.3,95,67,43,29.29,29.12,19,6,19,0.00
2012-4-20,48.0,37.4,28.2,39.8,33.2,22.6,98,86,53,29.23,29.09,22,8,22,0.00
2012-4-21,59.4,39.7,20.8,34.9,21.6,15.1,95,56,25,29.32,29.20,23,5,23,0.00
2012-4-22,60.4,41.3,21.0,32.7,21.0,12.7,92,51,24,29.41,29.29,25,7,25,0.00
2012-4-23,58.6,44.1,22.8,27.7,19.4,14.1,85,41,20,29.32,28.91,44,10,44,0.00
2012-4-24,59.4,47.6,36.7,29.4,24.2,21.6,70,42,26,28.91,28.79,39,13,39,0.00
2012-4-25,63.9,45.9,23.9,35.6,24.5,16.6,98,50,23,29.03,28.88,20,5,20,0.00
2012-4-26,46.9,40.2,32.2,39.9,28.6,17.1,95,65,39,29.35,28.91,42,10,42,0.00
2012-4-27,52.2,41.0,28.8,27.5,19.3,10.1,81,45,27,29.50,29.32,23,7,23,0.00
2012-4-28,61.2,40.9,20.8,28.3,20.0,9.7,96,48,25,29.53,29.44,24,6,24,0.00
2012-4-29,68.7,47.3,21.0,29.9,20.0,10.1,90,42,17,29.56,29.41,22,6,22,0.00
2012-4-30,50.5,45.3,39.0,39.7,30.4,0.0,100,60,27,29.41,29.12,20,6,20,0.00
2012-5-1,65.5,51.7,34.0,44.3,38.6,32.2,98,65,39,29.26,29.12,24,4,24,0.00
2012-5-2,59.5,52.4,41.4,57.5,48.9,36.9,98,88,69,29.20,28.88,37,6,37,0.08
2012-5-3,72.1,57.3,48.6,65.1,54.9,47.5,98,92,69,29.20,29.00,28,6,28,0.33
2012-5-4,72.0,57.0,45.3,52.9,44.6,36.6,98,69,33,29.35,29.12,24,7,24,0.33
2012-5-5,80.2,53.4,45.1,80.2,29.8,15.9,100,43,26,29.44,29.35,26,11,26,0.33
2012-5-6,64.2,50.9,38.7,46.7,30.9,-9.0,95,51,25,29.38,29.29,22,6,22,1.00
2012-5-7,64.6,53.4,44.4,46.6,40.0,35.5,94,63,35,29.32,29.03,18,5,18,0.00
2012-5-8,73.4,51.5,36.1,48.8,41.8,33.1,97,73,34,29.06,29.00,20,4,20,0.00
2012-5-9,61.9,50.4,34.2,45.2,35.3,22.6,98,62,27,29.12,29.00,31,8,31,0.00
2012-5-10,68.0,51.2,29.7,42.8,29.0,20.7,94,50,24,29.20,29.09,20,5,20,0.00
2012-5-11,76.3,59.7,35.4,40.6,32.8,24.4,86,41,21,29.32,29.17,24,6,24,0.00
2012-5-12,68.7,57.2,35.4,46.4,35.8,22.8,74,48,22,29.47,29.26,26,7,26,0.00
2012-5-13,73.6,53.5,29.1,39.2,28.4,21.4,92,46,19,29.50,29.29,23,6,23,0.00
2012-5-14,83.1,61.6,38.8,37.9,32.8,25.4,72,39,19,29.32,29.14,33,7,33,0.00
2012-5-15,84.9,58.9,41.7,44.7,38.2,34.3,82,50,20,29.17,28.94,32,8,32,1.37
2012-5-16,61.0,49.0,30.4,36.9,30.6,19.6,83,53,27,29.35,29.14,34,10,34,0.00
2012-5-17,73.4,51.7,27.0,37.6,29.2,21.9,92,50,22,29.47,29.32,20,5,20,0.00
2012-5-18,88.3,65.5,49.1,40.3,36.1,31.5,71,37,18,29.35,29.20,22,6,22,0.00
2012-5-19,95.2,70.4,46.0,53.9,44.7,36.6,90,47,18,29.32,29.23,20,5,20,0.00
2012-5-20,97.5,78.9,54.7,55.2,48.4,41.5,86,37,19,29.29,29.12,27,6,27,0.00
2012-5-21,68.0,56.3,44.1,60.4,45.5,35.4,98,71,37,29.35,29.12,25,8,25,0.00
2012-5-22,78.1,57.5,34.0,46.2,36.5,30.8,94,53,21,29.35,29.17,20,4,20,0.00
2012-5-23,86.4,63.8,43.5,47.6,43.1,36.7,87,52,23,29.20,29.03,26,4,26,0.71
2012-5-24,92.7,73.9,51.4,53.2,47.1,40.5,87,45,19,29.06,28.85,38,8,38,0.05
2012-5-25,75.7,67.0,46.9,58.1,46.8,40.2,89,51,31,29.38,28.85,34,9,34,0.00
2012-5-26,83.1,62.6,38.5,53.9,41.0,36.0,98,53,22,29.50,29.35,23,5,23,1.98
2012-5-27,79.0,62.8,55.2,63.3,50.8,36.3,98,67,42,29.38,29.06,86,6,86,1.98
2012-5-28,94.5,71.4,55.2,64.9,57.3,0.0,100,70,28,29.09,28.88,35,6,35,1.98
2012-5-29,75.2,63.2,47.3,61.7,50.5,39.9,98,69,32,29.03,28.85,34,6,34,0.00
2012-5-30,55.0,49.3,40.5,50.9,38.1,30.5,98,67,46,29.23,29.00,26,8,26,0.00
2012-5-31,71.4,51.5,29.5,43.2,32.9,26.6,95,56,25,29.32,29.20,86,4,86,0.00
2012-6-1,57.9,50.0,44.2,47.6,42.0,32.7,98,76,49,29.26,28.76,22,8,22,0.46
2012-6-2,51.8,49.1,46.4,51.1,48.2,43.3,98,96,87,28.82,28.64,36,10,36,0.99
2012-6-3,67.1,56.6,45.0,52.0,48.7,41.0,97,77,51,29.09,28.82,26,7,26,0.00
2012-6-4,78.1,59.8,40.3,54.3,46.2,39.5,98,65,33,29.26,29.06,20,4,20,0.00
2012-6-5,78.6,62.9,43.7,56.3,46.0,39.9,98,60,28,29.38,29.23,19,5,19,0.00
2012-6-6,81.9,61.3,43.2,58.2,47.0,41.4,96,65,30,29.32,29.26,16,3,16,0.05
2012-6-7,84.9,65.0,44.2,57.2,44.2,36.3,98,55,23,29.35,29.26,18,4,18,0.00
2012-6-8,84.2,66.2,49.5,62.6,52.9,0.0,100,68,33,29.26,29.06,20,4,20,1.08
2012-6-9,86.4,72.3,61.0,65.6,57.7,0.0,100,68,32,29.09,29.00,24,5,24,0.08
2012-6-10,93.7,77.6,60.6,57.9,52.8,47.0,83,46,26,29.20,29.09,26,6,26,0.00
2012-6-11,91.6,75.1,62.6,67.1,59.3,53.5,93,61,29,29.14,28.97,30,6,30,0.08
2012-6-12,69.8,59.8,44.4,66.3,43.2,28.1,97,56,37,29.38,28.94,37,10,37,0.00
2012-6-13,70.9,56.6,34.3,46.0,36.6,30.6,94,53,27,29.47,29.35,16,5,16,0.00
2012-6-14,82.0,66.9,42.8,53.7,43.1,0.0,100,46,23,29.47,29.32,30,6,30,0.00
2012-6-15,93.2,74.3,60.3,60.6,48.2,0.0,100,44,21,30.21,29.29,16,5,16,0.00
2012-6-16,94.6,75.5,58.1,67.0,56.5,49.2,96,57,23,29.35,29.06,21,5,21,0.38
2012-6-17,79.0,70.4,59.0,67.6,56.8,44.9,98,67,33,29.09,29.00,23,6,23,0.66
2012-6-18,81.5,66.7,57.6,65.3,58.3,51.9,98,76,44,29.03,28.85,54,6,54,0.75
2012-6-19,86.0,71.1,62.4,70.8,65.4,60.5,98,84,52,29.26,28.97,44,4,44,0.75
2012-6-20,93.7,82.4,68.4,67.1,63.8,60.3,94,56,35,29.23,29.06,26,9,26,0.62
2012-6-21,81.0,71.0,57.0,64.5,59.4,54.1,90,68,44,29.14,28.97,19,6,19,0.00
2012-6-22,80.1,65.2,50.7,59.9,49.8,0.0,98,63,30,29.26,29.12,20,4,20,0.00
2012-6-23,83.7,66.9,46.2,59.1,47.6,42.0,98,56,27,29.32,29.23,17,4,17,0.00
2012-6-24,75.7,65.4,52.5,63.1,53.4,38.4,91,67,37,29.26,29.17,27,6,27,0.00
2012-6-25,76.1,62.2,41.9,54.6,43.3,39.6,95,55,29,29.41,29.29,26,5,26,0.00
2012-6-26,80.8,63.8,44.8,55.8,44.6,38.1,95,55,28,29.35,29.17,86,4,86,0.00
2012-6-27,89.6,69.7,46.4,60.0,49.3,40.8,92,55,25,29.20,29.00,19,4,19,0.00
2012-6-28,92.1,73.6,59.4,65.7,60.3,53.9,93,66,37,29.06,28.94,22,4,22,0.00
2012-6-29,87.4,74.5,58.5,61.6,53.9,49.2,98,54,29,29.06,28.94,24,6,24,0.00
2012-6-30,86.9,73.0,58.3,64.2,54.9,50.9,94,58,31,29.12,28.94,19,5,19,0.00
2012-7-1,87.8,71.9,52.3,60.9,52.9,46.7,98,58,26,29.26,29.12,15,3,15,0.00
2012-7-2,96.4,77.4,54.9,62.0,53.7,45.8,95,51,20,29.32,29.14,15,4,15,0.00
2012-7-3,85.8,75.4,65.3,70.4,61.7,56.8,94,64,41,29.14,29.00,33,6,33,0.00
2012-7-4,97.0,80.6,63.7,68.6,62.8,55.5,95,60,28,29.20,29.00,17,3,17,0.00
2012-7-5,92.8,77.5,67.6,73.1,67.0,62.8,98,73,44,29.20,29.06,20,4,20,0.00
2012-7-6,92.5,76.8,59.4,69.7,60.2,53.0,98,63,28,29.26,29.17,16,3,16,0.00
2012-7-7,83.7,71.9,62.1,63.8,59.5,50.7,98,68,43,29.32,29.20,22,6,22,0.00
2012-7-8,86.4,70.4,54.3,63.1,54.6,49.2,97,63,29,29.38,29.29,18,3,18,0.00
2012-7-9,86.7,69.9,52.0,62.6,51.5,41.0,98,59,22,29.35,29.29,13,4,13,0.00
2012-7-10,83.1,68.0,49.1,60.2,50.3,45.7,97,59,29,29.47,29.35,15,4,15,0.00
2012-7-11,88.7,71.1,50.0,63.5,50.5,0.0,100,57,24,29.47,29.35,16,4,16,0.00
2012-7-12,93.4,73.8,53.8,61.1,49.6,40.5,93,51,19,29.41,29.32,15,4,15,1.58
2012-7-13,97.2,76.8,52.9,59.5,51.1,0.0,100,50,18,29.41,29.29,16,4,16,1.58
2012-7-14,94.3,76.1,63.0,69.5,61.7,55.9,91,64,34,29.32,29.23,20,4,20,0.00
2012-7-15,86.9,74.6,65.5,72.2,66.2,0.0,98,78,44,29.32,29.20,22,3,22,0.00
2012-7-16,90.5,78.6,64.9,72.6,65.3,59.3,100,68,37,29.26,28.94,28,5,28,0.00
2012-7-17,85.6,76.7,61.2,68.8,63.2,57.6,92,64,44,29.17,28.91,32,7,32,0.00
2012-7-18,88.2,71.3,55.0,64.7,54.4,48.0,98,62,28,29.29,29.14,18,5,18,0.00
2012-7-19,79.2,67.0,53.4,62.5,56.4,49.2,92,70,39,29.35,29.23,18,6,18,0.00
2012-7-20,86.2,69.0,48.2,61.9,51.9,47.4,98,62,29,29.41,29.29,16,3,16,0.00
2012-7-21,87.4,71.1,58.1,68.8,60.3,54.1,96,71,46,29.32,29.20,26,5,26,1.58
2012-7-22,92.5,74.0,52.9,65.1,55.8,51.3,98,62,28,29.32,29.20,13,3,13,0.00
2012-7-23,91.8,78.9,65.1,69.3,63.9,57.8,92,62,37,29.20,29.03,29,8,29,0.00
2012-7-24,86.2,73.4,56.1,61.8,52.9,42.6,94,55,26,29.29,29.12,30,5,30,0.00
2012-7-25,70.2,61.4,52.0,64.5,57.6,0.0,98,89,48,29.23,28.82,20,4,20,0.00
2012-7-26,76.3,67.4,59.7,66.9,62.2,57.4,98,85,55,29.03,28.85,20,4,20,0.00
2012-7-27,80.2,66.3,55.2,73.5,57.6,0.0,98,77,44,29.29,29.03,17,6,17,0.00
2012-7-28,85.5,68.6,49.6,63.6,53.1,0.0,98,65,16,29.41,29.26,16,3,16,1.58
2012-7-29,90.1,70.2,49.8,67.3,50.4,39.7,98,60,18,29.35,29.23,16,3,16,0.00
2012-7-30,87.8,73.5,59.7,67.1,61.3,0.0,98,69,38,29.23,29.03,29,5,29,0.00
2012-7-31,78.8,69.4,58.3,66.5,61.8,54.5,98,79,48,29.20,29.06,32,7,32,0.00
2012-8-1,88.9,69.9,47.3,61.2,55.0,46.8,98,64,30,29.20,29.06,18,4,18,0.00
2012-8-2,87.8,74.7,63.1,71.2,63.5,57.6,93,70,43,29.17,28.97,22,5,22,0.00
2012-8-3,85.5,70.4,60.6,66.5,62.5,58.8,98,78,47,29.29,29.14,23,7,23,0.00
2012-8-4,96.6,78.2,65.1,70.4,64.6,0.0,93,67,34,29.26,29.06,19,5,19,0.00
2012-8-5,75.6,69.2,51.8,70.6,52.9,38.9,96,60,31,29.32,29.00,38,8,38,0.00
2012-8-6,82.8,66.9,47.3,58.4,50.3,42.0,98,61,31,29.35,29.14,26,6,26,0.00
2012-8-7,83.1,72.3,55.9,67.4,61.7,48.5,89,71,46,29.26,29.12,18,5,18,0.00
2012-8-8,84.4,66.4,50.4,62.1,51.7,46.5,98,64,31,29.32,29.20,17,4,17,0.00
2012-8-9,75.0,64.6,55.8,63.3,53.2,43.8,98,70,37,29.29,29.20,25,6,25,0.00
2012-8-10,76.6,65.4,58.5,53.2,46.6,43.0,70,52,32,29.23,29.12,34,11,34,0.00
2012-8-11,82.9,68.7,62.2,54.5,49.5,43.8,71,52,29,29.20,29.12,23,7,23,1.58
2012-8-12,82.6,69.0,51.8,61.0,52.3,45.2,95,59,30,29.23,29.17,20,4,20,0.00
2012-8-13,83.5,66.1,34.2,63.0,54.4,0.0,98,72,31,29.23,29.17,16,3,16,0.00
2012-8-14,82.6,67.1,52.9,67.3,57.1,52.3,98,75,39,29.17,29.12,19,4,19,0.00
2012-8-15,84.7,68.7,50.9,64.0,49.6,38.4,98,60,22,30.24,29.12,86,3,86,0.00
2012-8-16,73.6,66.1,53.2,66.9,59.5,45.9,97,80,63,29.14,28.91,26,6,26,0.00
2012-8-17,71.2,62.6,55.6,54.2,43.8,32.7,84,53,29,29.20,29.00,30,11,30,0.00
2012-8-18,77.2,65.5,47.7,55.3,47.4,41.5,94,55,31,29.20,29.12,26,6,26,0.00
2012-8-19,76.6,60.5,42.3,55.0,41.4,31.3,97,57,22,29.23,29.14,18,4,18,0.00
2012-8-20,77.9,61.1,42.1,55.4,45.0,0.0,95,61,31,29.23,29.14,26,5,26,0.00
2012-8-21,79.7,63.8,46.9,59.3,49.3,43.0,98,65,30,29.29,29.17,18,4,18,0.00
2012-8-22,85.8,69.3,52.3,84.0,50.7,41.8,100,59,28,29.32,29.23,28,6,28,0.00
2012-8-23,94.3,74.3,53.4,63.0,51.4,42.6,86,49,22,29.35,29.23,18,4,18,0.00
2012-8-24,78.8,71.3,66.0,61.9,58.9,53.8,80,66,47,29.32,29.20,13,4,13,0.00
2012-8-25,99.9,79.6,65.1,61.4,56.6,49.4,86,50,19,29.35,29.23,21,5,21,0.00
2012-8-26,87.3,72.1,63.1,67.1,61.3,55.7,97,72,36,29.32,29.20,13,3,13,0.00
2012-8-27,84.2,73.1,60.6,70.7,59.5,50.0,98,67,33,29.32,29.17,23,5,23,0.00
2012-8-28,81.1,67.1,48.6,61.4,50.6,43.6,95,60,30,29.41,29.29,20,5,20,0.00
2012-8-29,83.3,63.6,42.3,57.2,48.5,40.8,98,65,31,29.35,29.20,19,4,19,0.00
2012-8-30,92.3,76.2,56.3,60.9,55.8,52.7,98,55,28,29.23,22.68,40,9,40,0.00
2012-8-31,85.6,75.5,55.9,66.3,53.9,42.9,92,50,26,29.38,29.06,86,7,86,0.00
2012-9-1,86.5,66.7,34.2,59.3,48.4,0.0,98,59,26,29.44,29.35,20,4,20,0.00
2012-9-2,85.5,66.8,48.4,63.0,51.6,46.5,98,65,30,29.38,29.23,26,7,26,0.00
2012-9-3,94.1,71.1,55.0,65.6,55.8,50.1,98,65,28,29.29,29.12,13,5,13,0.00
2012-9-4,86.9,71.2,60.3,70.4,63.1,59.7,98,79,43,29.20,29.09,11,3,11,0.00
2012-9-5,88.7,69.5,52.9,70.9,59.0,50.5,98,74,30,29.12,29.00,20,4,20,0.00
2012-9-6,80.8,65.3,51.3,68.0,51.1,44.4,98,67,29,29.17,29.06,18,4,18,0.00
2012-9-7,64.0,59.1,54.1,61.1,57.1,51.6,98,93,80,29.14,29.00,9,2,9,1.58
2012-9-8,66.0,58.2,47.8,55.5,47.4,36.5,98,70,40,29.06,28.94,20,7,20,0.00
2012-9-9,72.1,55.9,39.2,54.5,41.8,37.2,98,66,29,29.35,29.06,15,5,15,0.00
2012-9-10,76.1,58.0,39.2,54.1,43.9,0.0,98,67,31,29.44,29.29,11,4,11,0.00
2012-9-11,82.8,69.1,54.9,55.6,50.7,46.6,92,56,31,29.29,29.20,19,8,19,0.00
2012-9-12,81.3,72.0,56.7,63.8,55.0,48.3,89,57,42,29.41,29.20,20,8,20,0.00
2012-9-13,61.0,57.3,47.8,55.1,48.9,44.3,95,74,57,29.53,29.35,8,2,8,0.00
2012-9-14,70.2,55.2,42.3,55.7,46.0,41.2,98,75,36,29.50,29.47,19,5,19,1.58
2012-9-15,72.0,56.0,38.3,49.4,41.1,36.5,97,63,31,29.59,29.35,13,4,13,0.00
2012-9-16,78.1,63.3,46.0,56.1,45.7,38.2,98,58,32,29.35,29.12,27,8,27,0.00
2012-9-17,72.1,60.5,48.9,62.5,52.3,42.0,98,76,44,29.14,29.00,11,5,11,0.00
2012-9-18,55.8,49.6,45.5,48.7,41.2,27.8,98,75,48,29.12,28.94,18,7,18,0.00
2012-9-19,55.9,47.7,34.3,47.3,37.7,26.9,98,70,45,29.23,28.94,16,6,16,0.00
2012-9-20,63.9,54.1,48.6,52.5,47.5,41.1,98,80,46,29.06,28.91,26,7,26,0.00
2012-9-21,62.1,49.3,40.5,54.9,45.1,39.9,98,87,44,29.09,28.94,15,5,15,0.00
2012-9-22,57.2,48.2,41.5,45.2,39.5,33.3,98,74,44,29.20,28.91,30,10,30,0.00
2012-9-23,57.7,48.7,37.0,38.4,36.3,31.8,81,63,42,29.38,29.17,20,8,20,0.00
2012-9-24,66.2,53.9,36.3,49.7,35.5,30.9,92,53,32,29.35,28.88,36,10,36,0.00
2012-9-25,66.6,51.1,35.1,48.3,38.7,34.0,98,67,34,29.14,29.00,12,4,12,0.00
2012-9-26,64.4,48.5,34.0,47.7,36.8,31.4,98,69,35,29.44,29.12,10,4,10,1.58
2012-9-27,66.4,48.3,30.2,47.3,36.3,28.7,97,68,37,29.50,29.41,19,4,19,1.58
2012-9-28,69.3,48.8,32.2,55.3,38.9,0.0,100,74,37,29.44,29.29,16,4,16,0.00
2012-9-29,68.7,53.0,37.0,54.0,42.1,0.0,98,72,34,29.32,29.23,19,4,19,0.00
2012-9-30,68.4,51.1,36.3,50.4,38.9,33.1,98,69,29,29.29,29.17,16,4,16,0.00
2012-10-1,69.4,49.6,32.9,52.1,38.7,0.0,98,73,35,29.20,29.06,19,3,19,0.00
2012-10-2,68.2,50.9,39.2,54.8,45.7,37.9,98,84,51,29.23,29.06,10,2,10,0.00
2012-10-3,76.3,54.7,37.4,59.7,48.9,36.9,98,84,38,29.26,29.17,16,4,16,0.00
2012-10-4,76.1,62.8,34.2,61.8,53.2,0.0,98,75,41,29.23,29.06,24,4,24,0.00
2012-10-5,57.2,49.0,45.1,39.1,31.9,25.1,59,52,45,29.14,29.06,28,9,28,0.00
2012-10-6,52.0,43.3,37.4,35.5,28.9,23.1,81,57,40,29.35,29.00,37,11,37,0.00
2012-10-7,52.7,39.4,30.9,38.5,32.8,23.6,98,79,46,29.35,29.23,19,5,19,0.00
2012-10-8,60.1,48.1,36.5,36.3,30.0,26.4,95,53,33,29.26,29.12,36,9,36,0.00
2012-10-9,51.4,48.9,42.1,49.6,40.0,26.4,98,74,38,29.14,28.88,33,8,33,0.00
2012-10-10,45.3,41.8,37.9,38.8,30.0,17.4,87,64,40,29.26,28.91,33,11,33,0.00
2012-10-11,47.3,41.4,37.4,42.5,31.0,19.1,98,68,39,29.38,29.03,36,10,36,0.00
2012-10-12,53.1,38.9,25.0,36.5,25.9,19.7,93,63,31,29.62,29.38,26,5,26,0.00
2012-10-13,50.0,40.4,28.8,49.5,34.7,21.5,98,81,51,29.56,29.00,22,5,22,0.00
2012-10-14,51.4,48.0,43.0,50.9,47.5,42.5,98,98,98,29.00,28.55,30,8,30,0.00
2012-10-15,45.9,42.7,40.8,42.3,36.1,28.6,98,79,56,29.14,28.61,38,11,38,0.00
2012-10-16,54.3,43.4,27.9,45.6,35.8,25.5,100,76,58,29.14,28.88,19,4,19,0.00
2012-10-17,80.2,59.7,46.9,53.0,43.6,0.0,100,58,31,28.88,28.64,29,7,29,0.00
2012-10-18,61.7,53.8,45.3,55.3,48.8,38.7,95,83,63,28.85,28.52,28,8,28,0.00
2012-10-19,53.2,46.0,41.0,46.3,41.7,37.7,98,85,62,28.88,28.79,24,7,24,0.00
2012-10-20,62.4,48.3,38.7,51.8,43.1,38.2,98,85,45,29.06,28.85,16,4,16,0.00
2012-10-21,61.9,46.3,36.3,52.8,40.4,35.8,98,83,41,29.29,29.03,22,4,22,0.00
2012-10-22,64.8,50.5,37.8,55.1,43.9,37.2,98,81,50,29.26,29.20,20,5,20,0.00
2012-10-23,80.2,53.3,50.4,51.1,47.9,0.0,93,83,59,29.29,29.17,37,14,37,0.00
2012-10-24,67.6,56.7,49.8,60.5,53.3,0.0,100,90,69,29.26,29.06,23,8,23,0.00
2012-10-25,82.0,68.9,47.1,61.7,56.1,0.0,98,68,35,29.12,28.82,35,9,35,0.00
2012-10-26,50.9,42.4,32.4,46.4,30.6,24.6,98,65,39,29.50,29.00,35,9,35,0.00
2012-10-27,45.5,39.9,35.8,31.5,24.7,19.1,75,55,41,29.53,29.47,18,5,18,0.00
2012-10-28,51.8,38.8,24.4,29.4,23.2,17.8,82,55,36,29.59,29.47,22,7,22,0.00
2012-10-29,45.5,38.6,33.3,28.2,19.1,15.6,71,46,33,29.53,29.26,34,12,34,0.00
2012-10-30,37.4,35.5,33.3,34.9,28.6,16.3,98,78,42,29.26,28.91,37,15,37,0.00
2012-10-31,40.3,36.9,34.0,36.5,33.6,31.2,98,88,73,28.91,28.82,28,12,28,0.00
2012-11-1,44.2,39.0,35.4,37.6,30.5,23.5,98,73,46,29.00,28.85,34,13,34,0.00
2012-11-2,41.2,35.5,33.1,34.0,27.2,24.0,91,72,55,29.32,29.00,33,12,33,0.00
2012-11-3,36.1,32.9,29.7,29.0,24.8,21.9,91,72,57,29.47,29.32,16,3,16,0.00
2012-11-4,43.5,33.9,28.2,27.1,24.0,18.0,82,67,48,29.44,29.41,14,4,14,0.00
2012-11-5,35.2,30.3,24.1,23.9,18.4,13.4,81,61,49,29.50,29.35,19,5,19,0.00
2012-11-6,44.1,34.1,24.8,23.0,20.0,0.0,100,58,16,29.41,29.14,25,6,25,0.00
2012-11-7,48.4,35.4,25.3,27.8,23.9,0.0,100,65,41,29.38,29.20,16,5,16,0.00
2012-11-8,48.4,40.4,28.9,37.2,31.2,25.6,90,70,58,29.38,29.23,20,6,20,0.00
2012-11-9,52.9,44.9,39.7,40.2,37.6,33.9,86,76,54,29.38,29.23,17,4,17,0.00
2012-11-10,47.3,43.0,40.8,46.8,40.7,0.0,100,93,81,29.38,29.06,35,13,35,0.00
2012-11-11,70.7,59.2,45.9,53.7,47.0,44.0,98,67,43,29.12,28.91,56,8,56,0.00
2012-11-12,52.2,37.2,26.6,51.4,30.7,9.4,98,78,44,29.29,28.94,36,11,36,0.00
2012-11-13,42.4,33.3,28.6,25.5,20.1,10.6,72,58,44,29.68,29.29,30,7,30,0.00
2012-11-14,40.3,33.8,28.2,25.1,22.7,0.0,100,64,53,29.71,29.56,19,5,19,0.00
2012-11-15,54.0,39.8,29.5,38.2,26.6,19.2,85,60,37,29.59,29.44,21,5,21,0.00
2012-11-16,47.8,35.0,21.9,36.1,22.6,13.3,88,63,31,29.71,29.53,15,4,15,0.00
2012-11-17,42.4,31.7,21.9,38.9,29.8,17.0,98,93,79,29.76,29.65,11,4,11,0.00
2012-11-18,60.4,42.2,28.8,33.8,28.7,21.5,98,64,30,29.71,29.56,16,5,16,0.00
2012-11-19,53.4,40.3,34.9,32.3,29.7,25.6,78,67,41,29.59,29.32,12,4,12,0.00
2012-11-20,48.7,44.6,41.4,43.7,35.7,27.3,96,72,51,29.38,29.29,8,2,8,0.00
2012-11-21,60.1,49.3,43.7,44.1,41.9,36.7,98,77,47,30.05,29.29,24,5,18,0.00
2012-11-22,66.3,57.4,49.3,46.8,40.1,36.4,70,54,36,29.93,29.50,30,9,30,0.00
2012-11-23,57.2,37.1,30.0,47.9,31.4,22.6,91,80,68,29.94,29.44,37,12,37,0.11
2012-11-24,30.1,28.0,26.5,24.6,20.4,17.8,86,73,67,30.10,29.93,26,7,27,0.00
2012-11-25,32.1,29.2,26.3,27.9,25.1,20.3,93,85,69,29.94,29.74,15,4,20,0.00
2012-11-26,29.2,28.1,26.3,23.2,19.3,13.9,82,69,56,30.28,29.93,15,6,19,0.00
2012-11-27,32.9,29.4,26.3,30.1,22.4,17.3,94,75,65,30.28,30.06,25,6,25,0.00
2012-11-28,33.5,29.0,26.9,28.8,22.5,16.8,93,77,64,30.23,30.06,20,6,20,0.00
2012-11-29,36.8,29.4,24.1,29.0,23.6,17.6,86,79,70,30.33,30.10,20,6,21,0.00
2012-11-30,30.7,26.9,24.0,28.1,23.5,16.9,91,87,74,30.39,30.30,25,10,27,0.00
2012-12-1,44.9,35.0,30.7,43.6,32.4,28.1,96,90,83,30.32,29.81,18,6,18,0.11
2012-12-2,47.1,41.7,37.8,46.2,40.1,36.0,97,94,91,30.08,29.77,14,3,14,0.02
2012-12-3,61.9,47.2,35.8,58.2,44.5,34.2,95,91,85,30.10,29.59,32,5,32,0.12
2012-12-4,60.2,41.2,28.5,57.0,34.3,18.2,91,76,62,30.14,29.62,36,7,36,0.00
2012-12-5,30.7,26.7,18.1,24.3,19.7,15.4,91,75,65,30.43,30.14,22,5,22,0.00
2012-12-6,40.0,33.0,24.5,35.7,26.1,19.1,89,76,62,30.29,29.82,20,4,21,0.04
2012-12-7,40.5,35.6,30.0,36.9,29.1,23.6,87,77,68,30.01,29.82,11,4,15,0.00
2012-12-8,32.9,30.5,27.7,28.5,24.6,19.9,92,79,64,30.19,29.96,14,3,14,0.00
2012-12-9,31.6,27.3,22.6,27.8,23.8,18.8,94,87,75,30.26,29.79,24,6,24,0.00
2012-12-10,24.5,22.9,20.2,21.8,19.9,17.7,92,88,80,29.91,29.66,18,4,18,0.00
2012-12-11,31.7,25.9,18.2,27.5,21.4,15.5,94,83,72,29.97,29.87,19,4,20,0.01
2012-12-12,38.4,29.5,24.5,30.1,23.4,18.0,87,78,70,30.24,29.97,19,4,19,0.00
2012-12-13,43.8,39.6,34.5,33.8,30.8,28.1,78,71,60,30.17,29.99,23,6,24,0.03
2012-12-14,34.9,30.5,26.6,31.2,26.0,23.8,90,83,75,30.26,30.06,13,4,14,0.00
2012-12-15,37.7,34.1,26.9,34.3,31.1,24.4,94,89,83,30.22,29.64,22,8,23,0.79
2012-12-16,40.2,38.0,35.5,39.6,37.1,33.8,98,96,93,29.65,29.51,15,2,15,0.07
2012-12-17,38.0,35.5,30.0,37.2,33.6,28.3,97,93,87,29.67,29.56,10,2,10,0.02
2012-12-18,36.4,31.5,27.8,33.3,30.1,26.6,97,94,81,29.78,29.66,6,1,6,0.00
2012-12-19,39.6,31.2,24.7,32.7,28.3,23.2,97,89,70,30.11,29.77,12,1,13,0.01
2012-12-20,34.0,32.4,28.5,32.4,30.5,26.2,96,93,87,30.09,29.34,40,8,40,0.34
2012-12-21,28.9,27.4,24.7,25.4,24.0,21.3,93,87,81,29.95,29.43,26,10,27,0.00
2012-12-22,28.9,27.2,25.3,25.6,23.3,20.8,92,85,80,30.02,29.84,24,5,25,0.00
2012-12-23,29.8,26.4,24.3,26.4,21.0,17.3,89,80,72,30.02,29.83,21,6,21,0.00
2012-12-24,27.2,24.3,18.2,24.4,21.0,15.6,93,87,78,30.10,29.96,12,2,12,0.00
2012-12-25,27.1,25.2,23.4,21.8,19.6,17.2,84,79,70,30.42,30.10,11,3,11,0.00
2012-12-26,23.9,21.8,19.2,19.4,17.1,14.4,90,82,75,30.41,30.15,18,5,18,0.00
2012-12-27,27.1,20.0,10.3,19.3,14.9,7.2,90,81,66,30.21,30.15,11,2,11,0.02
2012-12-28,22.1,17.7,7.0,18.4,14.9,4.4,93,89,84,30.17,30.04,7,2,8,0.00
2012-12-29,25.8,19.1,12.0,20.8,16.1,9.4,93,88,80,30.05,29.93,9,2,10,0.01
2012-12-30,28.1,24.8,17.1,24.6,20.8,14.0,93,85,76,30.17,29.99,18,4,18,0.00
2012-12-31,33.2,25.7,19.6,29.8,20.1,10.1,92,79,66,30.05,29.81,22,7,23,0.00
2013-1-1,23.0,20.0,16.4,17.3,14.2,10.6,89,78,64,30.12,30.00,17,4,18,0.00